Time,TemperatureF,DewpointF,PressureIn,WindDirection,WindDirectionDegrees,WindSpeedMPH,WindSpeedGustMPH,Humidity,HourlyPrecipIn,Conditions,Clouds,dailyrainin,SoftwareType,DateUTC
2013-04-22 00:04:00,58.5,13.8,29.21,ESE,105,0.0,0.0,17,0.00,,---,0.00,VWS V14.01,2013-04-22 07:04:00,
2013-04-22 00:09:00,57.9,13.4,29.21,ESE,105,0.0,0.0,17,0.00,,---,0.00,VWS V14.01,2013-04-22 07:09:00,
2013-04-22 00:14:00,57.0,12.7,29.21,ESE,105,0.0,0.0,17,0.00,,---,0.00,VWS V14.01,2013-04-22 07:14:00,
2013-04-22 00:19:00,56.5,12.2,29.21,ESE,105,0.0,0.0,17,0.00,,---,0.00,VWS V14.01,2013-04-22 07:19:00,
2013-04-22 00:24:00,56.3,14.6,29.21,ESE,105,0.0,0.0,19,0.00,,---,0.00,VWS V14.01,2013-04-22 07:24:00,
2013-04-22 00:29:00,56.3,14.6,29.21,ESE,105,0.0,0.0,19,0.00,,---,0.00,VWS V14.01,2013-04-22 07:29:00,
2013-04-22 00:34:00,56.8,15.0,29.21,ESE,105,0.0,0.0,19,0.00,,---,0.00,VWS V14.01,2013-04-22 07:34:00,
2013-04-22 00:39:00,56.8,15.0,29.21,ESE,105,0.0,0.0,19,0.00,,---,0.00,VWS V14.01,2013-04-22 07:39:00,
2013-04-22 00:44:00,56.8,15.0,29.21,ESE,105,0.0,0.0,19,0.00,,---,0.00,VWS V14.01,2013-04-22 07:44:00,
2013-04-22 00:49:00,56.7,14.9,29.21,ESE,105,0.0,0.0,19,0.00,,---,0.00,VWS V14.01,2013-04-22 07:49:00,
2013-04-22 00:54:00,56.3,14.6,29.21,ESE,105,0.0,0.0,19,0.00,,---,0.00,VWS V14.01,2013-04-22 07:54:00,
2013-04-22 00:59:00,56.8,15.0,29.21,ESE,105,0.0,0.0,19,0.00,,---,0.00,VWS V14.01,2013-04-22 07:59:00,
2013-04-22 01:04:00,57.2,15.3,29.21,ESE,105,0.0,0.0,19,0.00,,---,0.00,VWS V14.01,2013-04-22 08:04:00,
2013-04-22 01:09:00,57.2,15.3,29.21,ESE,105,0.0,0.0,19,0.00,,---,0.00,VWS V14.01,2013-04-22 08:09:00,
2013-04-22 01:14:00,56.7,14.9,29.21,ESE,105,0.0,0.0,19,0.00,,---,0.00,VWS V14.01,2013-04-22 08:14:00,
2013-04-22 01:19:00,55.9,15.5,29.21,ESE,105,0.0,0.0,20,0.00,,---,0.00,VWS V14.01,2013-04-22 08:19:00,
2013-04-22 01:24:00,55.4,15.0,29.21,ESE,105,0.0,0.0,20,0.00,,---,0.00,VWS V14.01,2013-04-22 08:24:00,
2013-04-22 01:29:00,54.5,14.3,29.21,ESE,105,0.0,0.0,20,0.00,,---,0.00,VWS V14.01,2013-04-22 08:29:00,
2013-04-22 01:34:00,53.6,13.5,29.18,ESE,105,0.0,0.0,20,0.00,,---,0.00,VWS V14.01,2013-04-22 08:34:00,
2013-04-22 01:39:00,53.4,13.4,29.18,ESE,105,0.0,0.0,20,0.00,,---,0.00,VWS V14.01,2013-04-22 08:39:00,
2013-04-22 01:44:00,53.4,16.6,29.18,ESE,105,0.0,0.0,23,0.00,,---,0.00,VWS V14.01,2013-04-22 08:44:00,
2013-04-22 01:49:00,53.6,16.7,29.18,ESE,105,0.0,0.0,23,0.00,,---,0.00,VWS V14.01,2013-04-22 08:49:00,
2013-04-22 01:54:00,54.0,17.0,29.18,ESE,105,0.0,0.0,23,0.00,,---,0.00,VWS V14.01,2013-04-22 08:54:00,
2013-04-22 01:59:00,54.7,16.6,29.18,ESE,105,0.0,0.0,22,0.00,,---,0.00,VWS V14.01,2013-04-22 08:59:00,
2013-04-22 02:04:00,54.5,17.5,29.18,ESE,105,0.0,0.0,23,0.00,,---,0.00,VWS V14.01,2013-04-22 09:04:00,
2013-04-22 02:09:00,54.3,17.3,29.18,ESE,105,0.0,0.0,23,0.00,,---,0.00,VWS V14.01,2013-04-22 09:09:00,
2013-04-22 02:14:00,54.5,16.5,29.18,ESE,105,0.0,0.0,22,0.00,,---,0.00,VWS V14.01,2013-04-22 09:14:00,
2013-04-22 02:19:00,54.3,17.3,29.18,ESE,105,0.0,0.0,23,0.00,,---,0.00,VWS V14.01,2013-04-22 09:19:00,
2013-04-22 02:24:00,54.9,16.8,29.18,ESE,105,0.0,0.0,22,0.00,,---,0.00,VWS V14.01,2013-04-22 09:24:00,
2013-04-22 02:29:00,54.5,17.5,29.18,ESE,105,0.0,0.0,23,0.00,,---,0.00,VWS V14.01,2013-04-22 09:29:00,
2013-04-22 02:34:00,55.0,16.9,29.18,ESE,105,0.0,0.0,22,0.00,,---,0.00,VWS V14.01,2013-04-22 09:34:00,
2013-04-22 02:40:00,55.8,17.5,29.18,ESE,105,0.0,0.0,22,0.00,,---,0.00,VWS V14.01,2013-04-22 09:40:00,
2013-04-22 02:46:00,55.4,17.2,29.18,ESE,105,0.0,0.0,22,0.00,,---,0.00,VWS V14.01,2013-04-22 09:46:00,
2013-04-22 02:51:00,54.7,16.6,29.18,ESE,105,0.0,0.0,22,0.00,,---,0.00,VWS V14.01,2013-04-22 09:51:00,
2013-04-22 02:56:00,52.9,16.1,29.18,NNW,333,5.4,6.3,23,0.00,,---,0.00,VWS V14.01,2013-04-22 09:56:00,
2013-04-22 03:01:00,51.4,14.9,29.18,North,356,4.0,4.0,23,0.00,,---,0.00,VWS V14.01,2013-04-22 10:01:00,
2013-04-22 03:06:00,50.5,17.8,29.18,NE,34,0.0,0.0,27,0.00,,---,0.00,VWS V14.01,2013-04-22 10:06:00,
2013-04-22 03:11:00,51.3,18.4,29.18,ENE,71,2.7,4.0,27,0.00,,---,0.00,VWS V14.01,2013-04-22 10:11:00,
2013-04-22 03:16:00,52.2,19.2,29.18,South,173,0.0,0.0,27,0.00,,---,0.00,VWS V14.01,2013-04-22 10:16:00,
2013-04-22 03:21:00,53.2,19.3,29.18,SE,125,3.6,4.9,26,0.00,,---,0.00,VWS V14.01,2013-04-22 10:21:00,
2013-04-22 03:26:00,56.8,21.4,29.18,ESE,122,4.5,5.4,25,0.00,,---,0.00,VWS V14.01,2013-04-22 10:26:00,
2013-04-22 03:31:00,56.5,20.1,29.18,ESE,118,0.0,0.0,24,0.00,,---,0.00,VWS V14.01,2013-04-22 10:31:00,
2013-04-22 03:36:00,54.9,19.7,29.18,SW,224,3.6,4.0,25,0.00,,---,0.00,VWS V14.01,2013-04-22 10:36:00,
2013-04-22 03:41:00,52.5,18.6,29.18,SW,233,4.0,4.0,26,0.00,,---,0.00,VWS V14.01,2013-04-22 10:41:00,
2013-04-22 03:46:00,51.3,17.6,29.18,North,3,2.7,4.5,26,0.00,,---,0.00,VWS V14.01,2013-04-22 10:46:00,
2013-04-22 03:51:00,52.0,19.1,29.18,North,3,0.0,0.0,27,0.00,,---,0.00,VWS V14.01,2013-04-22 10:51:00,
2013-04-22 03:56:00,52.3,18.5,29.18,North,3,0.0,0.0,26,0.00,,---,0.00,VWS V14.01,2013-04-22 10:56:00,
2013-04-22 04:01:00,51.3,17.6,29.18,North,3,0.0,0.0,26,0.00,,---,0.00,VWS V14.01,2013-04-22 11:01:00,
2013-04-22 04:06:00,50.7,18.0,29.18,North,351,0.0,0.0,27,0.00,,---,0.00,VWS V14.01,2013-04-22 11:06:00,
2013-04-22 04:11:00,50.0,17.4,29.18,North,356,0.0,0.0,27,0.00,,---,0.00,VWS V14.01,2013-04-22 11:11:00,
2013-04-22 04:16:00,50.2,18.4,29.18,ENE,77,3.1,3.6,28,0.00,,---,0.00,VWS V14.01,2013-04-22 11:16:00,
2013-04-22 04:21:00,50.4,19.3,29.18,East,88,0.0,0.0,29,0.00,,---,0.00,VWS V14.01,2013-04-22 11:21:00,
2013-04-22 04:26:00,51.3,19.3,29.18,East,91,3.1,3.1,28,0.00,,---,0.00,VWS V14.01,2013-04-22 11:26:00,
2013-04-22 04:31:00,51.8,19.8,29.18,ESE,107,3.6,4.0,28,0.00,,---,0.00,VWS V14.01,2013-04-22 11:31:00,
2013-04-22 04:36:00,52.3,19.4,29.18,ESE,116,0.0,4.0,27,0.00,,---,0.00,VWS V14.01,2013-04-22 11:36:00,
2013-04-22 04:41:00,52.0,19.1,29.18,ESE,112,0.0,3.6,27,0.00,,---,0.00,VWS V14.01,2013-04-22 11:41:00,
2013-04-22 04:46:00,51.4,18.6,29.18,SE,131,4.0,4.9,27,0.00,,---,0.00,VWS V14.01,2013-04-22 11:46:00,
2013-04-22 04:51:00,52.3,19.4,29.18,SE,130,0.0,0.0,27,0.00,,---,0.00,VWS V14.01,2013-04-22 11:51:00,
2013-04-22 04:56:00,52.0,19.1,29.18,SE,129,4.0,4.5,27,0.00,,---,0.00,VWS V14.01,2013-04-22 11:56:00,
2013-04-22 05:01:00,52.5,19.5,29.18,SE,130,0.0,2.7,27,0.00,,---,0.00,VWS V14.01,2013-04-22 12:01:00,
2013-04-22 05:06:00,52.3,19.4,29.18,North,351,0.0,4.9,27,0.00,,---,0.00,VWS V14.01,2013-04-22 12:06:00,
2013-04-22 05:11:00,51.1,18.3,29.18,NNE,14,2.7,3.1,27,0.00,,---,0.00,VWS V14.01,2013-04-22 12:11:00,
2013-04-22 05:16:00,51.6,18.8,29.18,East,97,3.1,3.1,27,0.00,,---,0.00,VWS V14.01,2013-04-22 12:16:00,
2013-04-22 05:21:00,50.5,17.8,29.18,ESE,113,0.0,0.0,27,0.00,,---,0.00,VWS V14.01,2013-04-22 12:21:00,
2013-04-22 05:26:00,51.8,18.9,29.18,ENE,63,3.1,4.5,27,0.00,,---,0.00,VWS V14.01,2013-04-22 12:26:00,
2013-04-22 05:31:00,53.4,19.4,29.18,South,181,0.0,0.0,26,0.00,,---,0.00,VWS V14.01,2013-04-22 12:31:00,
2013-04-22 05:36:00,55.9,20.6,29.18,ESE,119,2.7,3.6,25,0.00,,---,0.00,VWS V14.01,2013-04-22 12:36:00,
2013-04-22 05:41:00,57.9,19.3,29.18,SE,141,3.6,3.6,22,0.00,,---,0.00,VWS V14.01,2013-04-22 12:41:00,
2013-04-22 05:46:00,58.8,20.1,29.18,NNW,342,3.6,5.4,22,0.00,,---,0.00,VWS V14.01,2013-04-22 12:46:00,
2013-04-22 05:51:00,58.6,16.5,29.18,North,351,0.0,0.0,19,0.00,,---,0.00,VWS V14.01,2013-04-22 12:51:00,
2013-04-22 05:56:00,61.5,18.9,29.18,SW,216,6.3,6.3,19,0.00,,---,0.00,VWS V14.01,2013-04-22 12:56:00,
2013-04-22 06:01:00,63.0,18.8,29.18,South,182,0.0,4.5,18,0.00,,---,0.00,VWS V14.01,2013-04-22 13:01:00,
2013-04-22 06:06:00,63.5,15.1,29.18,NE,56,0.0,3.6,15,0.00,,---,0.00,VWS V14.01,2013-04-22 13:06:00,
2013-04-22 06:11:00,64.4,15.8,29.18,NNE,14,5.8,5.8,15,0.00,,---,0.00,VWS V14.01,2013-04-22 13:11:00,
2013-04-22 06:16:00,65.5,16.6,29.18,North,351,7.8,10.1,15,0.00,,---,0.00,VWS V14.01,2013-04-22 13:16:00,
2013-04-22 06:21:00,65.8,16.9,29.18,NNE,14,11.0,13.9,15,0.00,,---,0.00,VWS V14.01,2013-04-22 13:21:00,
2013-04-22 06:26:00,66.6,17.5,29.18,NNE,28,11.2,12.5,15,0.00,,---,0.00,VWS V14.01,2013-04-22 13:26:00,
2013-04-22 06:31:00,67.1,17.9,29.18,NNE,25,13.4,13.4,15,0.00,,---,0.00,VWS V14.01,2013-04-22 13:31:00,
2013-04-22 06:36:00,66.7,17.6,29.18,NNE,27,8.3,9.2,15,0.00,,---,0.00,VWS V14.01,2013-04-22 13:36:00,
2013-04-22 06:41:00,66.4,17.4,29.18,NNE,22,7.8,9.2,15,0.00,,---,0.00,VWS V14.01,2013-04-22 13:41:00,
2013-04-22 06:46:00,66.2,17.2,29.18,East,87,0.0,4.0,15,0.00,,---,0.00,VWS V14.01,2013-04-22 13:46:00,
2013-04-22 06:51:00,65.3,16.5,29.18,SSE,152,5.4,5.4,15,0.00,,---,0.00,VWS V14.01,2013-04-22 13:51:00,
2013-04-22 06:56:00,67.3,18.1,29.18,ENE,76,8.7,8.7,15,0.00,,---,0.00,VWS V14.01,2013-04-22 13:56:00,
2013-04-22 07:01:00,69.1,17.9,29.18,ENE,69,4.5,6.3,14,0.00,,---,0.00,VWS V14.01,2013-04-22 14:01:00,
2013-04-22 07:06:00,68.4,19.0,29.18,North,8,5.4,8.3,15,0.00,,---,0.00,VWS V14.01,2013-04-22 14:06:00,
2013-04-22 07:11:00,67.1,17.9,29.18,NE,34,3.1,6.9,15,0.00,,---,0.00,VWS V14.01,2013-04-22 14:11:00,
2013-04-22 07:16:00,66.9,17.8,29.18,NE,42,5.4,6.7,15,0.00,,---,0.00,VWS V14.01,2013-04-22 14:16:00,
2013-04-22 07:21:00,67.1,17.9,29.21,NE,37,6.3,9.6,15,0.00,,---,0.00,VWS V14.01,2013-04-22 14:21:00,
2013-04-22 07:26:00,67.5,18.2,29.21,NNE,21,11.2,11.2,15,0.00,,---,0.00,VWS V14.01,2013-04-22 14:26:00,
2013-04-22 07:31:00,68.4,19.0,29.21,NE,51,8.3,15.2,15,0.00,,---,0.00,VWS V14.01,2013-04-22 14:31:00,
2013-04-22 07:36:00,68.4,19.0,29.21,NE,38,12.5,13.4,15,0.00,,---,0.00,VWS V14.01,2013-04-22 14:36:00,
2013-04-22 07:41:00,68.4,19.0,29.21,NE,42,14.3,15.4,15,0.00,,---,0.00,VWS V14.01,2013-04-22 14:41:00,
2013-04-22 07:46:00,68.7,19.2,29.21,NE,37,12.5,16.8,15,0.00,,---,0.00,VWS V14.01,2013-04-22 14:46:00,
2013-04-22 07:51:00,68.5,19.1,29.18,NE,39,10.5,15.9,15,0.00,,---,0.00,VWS V14.01,2013-04-22 14:51:00,
2013-04-22 07:56:00,68.7,19.2,29.18,NE,41,11.6,15.9,15,0.00,,---,0.00,VWS V14.01,2013-04-22 14:56:00,
2013-04-22 08:01:00,68.9,17.8,29.18,NNE,29,11.2,15.4,14,0.00,,---,0.00,VWS V14.01,2013-04-22 15:01:00,
2013-04-22 08:06:00,69.1,17.9,29.21,NE,41,11.6,19.9,14,0.00,,---,0.00,VWS V14.01,2013-04-22 15:06:00,
2013-04-22 08:11:00,69.3,18.1,29.21,North,11,13.0,14.8,14,0.00,,---,0.00,VWS V14.01,2013-04-22 15:11:00,
2013-04-22 08:16:00,69.8,18.5,29.21,NNE,16,12.5,12.5,14,0.00,,---,0.00,VWS V14.01,2013-04-22 15:16:00,
2013-04-22 08:21:00,70.2,18.8,29.21,NNE,21,14.3,19.0,14,0.00,,---,0.00,VWS V14.01,2013-04-22 15:21:00,
2013-04-22 08:26:00,70.5,19.1,29.21,NNE,31,11.2,14.8,14,0.00,,---,0.00,VWS V14.01,2013-04-22 15:26:00,
2013-04-22 08:31:00,70.9,19.4,29.21,NNE,31,13.0,15.2,14,0.00,,---,0.00,VWS V14.01,2013-04-22 15:31:00,
2013-04-22 08:36:00,70.7,19.2,29.21,NNE,19,14.3,16.3,14,0.00,,---,0.00,VWS V14.01,2013-04-22 15:36:00,
2013-04-22 08:41:00,71.6,19.9,29.21,NNE,17,16.3,16.3,14,0.00,,---,0.00,VWS V14.01,2013-04-22 15:41:00,
2013-04-22 08:46:00,71.4,19.8,29.21,NE,41,13.9,18.1,14,0.00,,---,0.00,VWS V14.01,2013-04-22 15:46:00,
2013-04-22 08:51:00,72.0,20.2,29.21,North,11,11.6,14.3,14,0.00,,---,0.00,VWS V14.01,2013-04-22 15:51:00,
2013-04-22 08:56:00,71.6,19.9,29.21,NNE,23,13.4,17.7,14,0.00,,---,0.00,VWS V14.01,2013-04-22 15:56:00,
2013-04-22 09:01:00,72.5,18.9,29.21,NNE,31,15.4,15.4,13,0.00,,---,0.00,VWS V14.01,2013-04-22 16:01:00,
2013-04-22 09:06:00,72.9,19.2,29.21,North,351,11.2,12.5,13,0.00,,---,0.00,VWS V14.01,2013-04-22 16:06:00,
2013-04-22 09:11:00,73.8,19.9,29.21,North,351,10.1,10.1,13,0.00,,---,0.00,VWS V14.01,2013-04-22 16:11:00,
2013-04-22 09:16:00,73.4,19.6,29.21,North,7,12.1,14.3,13,0.00,,---,0.00,VWS V14.01,2013-04-22 16:16:00,
2013-04-22 09:21:00,73.2,19.5,29.21,North,2,9.6,12.5,13,0.00,,---,0.00,VWS V14.01,2013-04-22 16:21:00,
2013-04-22 09:26:00,74.3,20.3,29.21,North,7,7.4,10.1,13,0.00,,---,0.00,VWS V14.01,2013-04-22 16:26:00,
2013-04-22 09:32:00,73.9,20.0,29.21,WNW,294,15.2,16.3,13,0.00,,---,0.00,VWS V14.01,2013-04-22 16:32:00,
2013-04-22 09:37:00,74.1,20.2,29.21,NW,324,13.0,14.3,13,0.00,,---,0.00,VWS V14.01,2013-04-22 16:37:00,
2013-04-22 09:42:00,73.9,20.0,29.21,North,351,9.6,13.0,13,0.00,,---,0.00,VWS V14.01,2013-04-22 16:42:00,
2013-04-22 09:47:00,75.2,21.0,29.21,North,351,4.5,8.3,13,0.00,,---,0.00,VWS V14.01,2013-04-22 16:47:00,
2013-04-22 09:52:00,75.7,21.5,29.21,NE,49,8.7,11.6,13,0.00,,---,0.00,VWS V14.01,2013-04-22 16:52:00,
2013-04-22 09:57:00,75.6,21.3,29.21,NE,40,7.4,7.4,13,0.00,,---,0.00,VWS V14.01,2013-04-22 16:57:00,
2013-04-22 10:02:00,75.9,21.6,29.21,NNW,347,9.2,9.2,13,0.00,,---,0.00,VWS V14.01,2013-04-22 17:02:00,
2013-04-22 10:07:00,77.0,22.4,29.21,NNE,25,7.4,9.6,13,0.00,,---,0.00,VWS V14.01,2013-04-22 17:07:00,
2013-04-22 10:12:00,76.8,22.3,29.21,North,4,5.8,9.2,13,0.00,,---,0.00,VWS V14.01,2013-04-22 17:12:00,
2013-04-22 10:17:00,76.3,21.9,29.21,North,351,11.2,15.2,13,0.00,,---,0.00,VWS V14.01,2013-04-22 17:17:00,
2013-04-22 10:22:00,75.6,21.3,29.21,NNW,343,12.1,15.2,13,0.00,,---,0.00,VWS V14.01,2013-04-22 17:22:00,
2013-04-22 10:27:00,76.5,22.0,29.21,NNW,334,4.5,6.7,13,0.00,,---,0.00,VWS V14.01,2013-04-22 17:27:00,
2013-04-22 10:32:00,77.5,22.9,29.21,North,356,9.2,10.1,13,0.00,,---,0.00,VWS V14.01,2013-04-22 17:32:00,
2013-04-22 10:37:00,76.6,22.1,29.21,North,10,8.3,13.9,13,0.00,,---,0.00,VWS V14.01,2013-04-22 17:37:00,
2013-04-22 10:42:00,77.2,22.6,29.21,NNE,25,7.8,11.0,13,0.00,,---,0.00,VWS V14.01,2013-04-22 17:42:00,
2013-04-22 10:47:00,77.4,22.7,29.21,North,356,4.9,13.0,13,0.00,,---,0.00,VWS V14.01,2013-04-22 17:47:00,
2013-04-22 10:52:00,78.6,21.8,29.21,NNE,18,11.2,11.6,12,0.00,,---,0.00,VWS V14.01,2013-04-22 17:52:00,
2013-04-22 10:57:00,79.9,22.8,29.21,NNW,333,8.3,11.0,12,0.00,,---,0.00,VWS V14.01,2013-04-22 17:57:00,
2013-04-22 11:02:00,78.4,21.7,29.21,NNW,347,8.3,13.9,12,0.00,,---,0.00,VWS V14.01,2013-04-22 18:02:00,
2013-04-22 11:07:00,78.1,21.4,29.21,North,10,8.3,14.3,12,0.00,,---,0.00,VWS V14.01,2013-04-22 18:07:00,
2013-04-22 11:12:00,79.5,22.5,29.21,North,351,10.5,11.6,12,0.00,,---,0.00,VWS V14.01,2013-04-22 18:12:00,
2013-04-22 11:17:00,79.3,22.4,29.21,NNE,22,11.0,11.0,12,0.00,,---,0.00,VWS V14.01,2013-04-22 18:17:00,
2013-04-22 11:22:00,79.0,22.1,29.18,NNW,330,9.6,11.0,12,0.00,,---,0.00,VWS V14.01,2013-04-22 18:22:00,
2013-04-22 11:27:00,79.0,22.1,29.18,North,4,11.0,11.0,12,0.00,,---,0.00,VWS V14.01,2013-04-22 18:27:00,
2013-04-22 11:32:00,78.8,22.0,29.18,North,351,11.6,15.9,12,0.00,,---,0.00,VWS V14.01,2013-04-22 18:32:00,
2013-04-22 11:37:00,79.9,22.8,29.18,NNE,12,9.6,15.4,12,0.00,,---,0.00,VWS V14.01,2013-04-22 18:37:00,
2013-04-22 11:42:00,80.8,23.5,29.18,North,351,11.0,11.6,12,0.00,,---,0.00,VWS V14.01,2013-04-22 18:42:00,
2013-04-22 11:47:00,80.6,23.4,29.18,NW,316,14.3,14.3,12,0.00,,---,0.00,VWS V14.01,2013-04-22 18:47:00,
2013-04-22 11:52:00,81.0,23.6,29.18,NNW,340,13.4,16.3,12,0.00,,---,0.00,VWS V14.01,2013-04-22 18:52:00,
2013-04-22 11:57:00,80.4,23.2,29.18,North,351,11.0,12.1,12,0.00,,---,0.00,VWS V14.01,2013-04-22 18:57:00,
2013-04-22 12:02:00,81.0,23.6,29.18,North,351,11.2,15.9,12,0.00,,---,0.00,VWS V14.01,2013-04-22 19:02:00,
2013-04-22 12:07:00,82.2,22.5,29.18,NNW,336,9.6,13.9,11,0.00,,---,0.00,VWS V14.01,2013-04-22 19:07:00,
2013-04-22 12:12:00,81.3,23.9,29.18,North,351,16.3,18.6,12,0.00,,---,0.00,VWS V14.01,2013-04-22 19:12:00,
2013-04-22 12:17:00,81.3,23.9,29.18,NNE,12,11.2,14.3,12,0.00,,---,0.00,VWS V14.01,2013-04-22 19:17:00,
2013-04-22 12:22:00,81.3,23.9,29.18,NNW,343,15.2,15.2,12,0.00,,---,0.00,VWS V14.01,2013-04-22 19:22:00,
2013-04-22 12:27:00,82.0,22.4,29.18,NNE,22,6.9,11.2,11,0.00,,---,0.00,VWS V14.01,2013-04-22 19:27:00,
2013-04-22 12:32:00,82.4,22.7,29.18,North,351,9.6,14.3,11,0.00,,---,0.00,VWS V14.01,2013-04-22 19:32:00,
2013-04-22 12:37:00,82.0,22.4,29.18,NNE,12,11.2,11.6,11,0.00,,---,0.00,VWS V14.01,2013-04-22 19:37:00,
2013-04-22 12:42:00,82.6,22.8,29.18,North,351,11.6,13.4,11,0.00,,---,0.00,VWS V14.01,2013-04-22 19:42:00,
2013-04-22 12:47:00,82.6,22.8,29.18,North,8,11.6,12.5,11,0.00,,---,0.00,VWS V14.01,2013-04-22 19:47:00,
2013-04-22 12:52:00,83.5,23.5,29.15,NNW,343,19.0,19.5,11,0.00,,---,0.00,VWS V14.01,2013-04-22 19:52:00,
2013-04-22 12:57:00,82.9,23.1,29.15,NNW,334,10.5,10.5,11,0.00,,---,0.00,VWS V14.01,2013-04-22 19:57:00,
2013-04-22 13:02:00,82.9,23.1,29.15,West,275,11.0,11.2,11,0.00,,---,0.00,VWS V14.01,2013-04-22 20:02:00,
2013-04-22 13:07:00,83.7,23.6,29.15,NNE,12,6.3,12.5,11,0.00,,---,0.00,VWS V14.01,2013-04-22 20:07:00,
2013-04-22 13:12:00,83.5,23.5,29.15,NNW,330,9.6,10.5,11,0.00,,---,0.00,VWS V14.01,2013-04-22 20:12:00,
2013-04-22 13:17:00,83.8,23.8,29.15,NNW,334,10.1,14.3,11,0.00,,---,0.00,VWS V14.01,2013-04-22 20:17:00,
2013-04-22 13:22:00,84.4,24.2,29.15,North,351,15.2,15.2,11,0.00,,---,0.00,VWS V14.01,2013-04-22 20:22:00,
2013-04-22 13:27:00,83.3,23.4,29.15,NNE,16,13.0,13.0,11,0.00,,---,0.00,VWS V14.01,2013-04-22 20:27:00,
2013-04-22 13:33:00,82.6,22.8,29.15,NNW,343,13.9,17.2,11,0.00,,---,0.00,VWS V14.01,2013-04-22 20:33:00,
2013-04-22 13:38:00,84.4,24.2,29.15,NNE,17,12.5,12.5,11,0.00,,---,0.00,VWS V14.01,2013-04-22 20:38:00,
2013-04-22 13:43:00,84.6,24.3,29.15,NNE,26,6.9,8.7,11,0.00,,---,0.00,VWS V14.01,2013-04-22 20:43:00,
2013-04-22 13:48:00,84.7,24.5,29.12,North,9,8.7,16.8,11,0.00,,---,0.00,VWS V14.01,2013-04-22 20:48:00,
2013-04-22 13:53:00,86.0,25.4,29.12,NNE,17,9.2,10.1,11,0.00,,---,0.00,VWS V14.01,2013-04-22 20:53:00,
2013-04-22 13:58:00,85.5,25.0,29.12,North,3,9.6,11.6,11,0.00,,---,0.00,VWS V14.01,2013-04-22 20:58:00,
2013-04-22 14:03:00,85.1,24.7,29.12,NNE,14,7.8,11.2,11,0.00,,---,0.00,VWS V14.01,2013-04-22 21:03:00,
2013-04-22 14:08:00,85.3,24.9,29.12,NNE,22,6.9,13.4,11,0.00,,---,0.00,VWS V14.01,2013-04-22 21:08:00,
2013-04-22 14:13:00,84.4,24.2,29.12,North,8,11.6,15.4,11,0.00,,---,0.00,VWS V14.01,2013-04-22 21:13:00,
2013-04-22 14:18:00,85.8,25.3,29.12,ENE,57,8.7,12.1,11,0.00,,---,0.00,VWS V14.01,2013-04-22 21:18:00,
2013-04-22 14:23:00,85.3,24.9,29.12,NE,37,5.4,8.3,11,0.00,,---,0.00,VWS V14.01,2013-04-22 21:23:00,
2013-04-22 14:28:00,86.4,25.7,29.12,NNE,15,7.4,14.3,11,0.00,,---,0.00,VWS V14.01,2013-04-22 21:28:00,
2013-04-22 14:33:00,86.9,26.1,29.12,North,351,8.3,12.1,11,0.00,,---,0.00,VWS V14.01,2013-04-22 21:33:00,
2013-04-22 14:38:00,86.2,25.6,29.12,NNE,27,9.6,12.5,11,0.00,,---,0.00,VWS V14.01,2013-04-22 21:38:00,
2013-04-22 14:43:00,85.8,25.3,29.12,NNE,22,11.2,11.6,11,0.00,,---,0.00,VWS V14.01,2013-04-22 21:43:00,
2013-04-22 14:48:00,86.4,25.7,29.12,North,11,10.1,14.8,11,0.00,,---,0.00,VWS V14.01,2013-04-22 21:48:00,
2013-04-22 14:53:00,85.6,25.2,29.12,North,351,9.2,13.0,11,0.00,,---,0.00,VWS V14.01,2013-04-22 21:53:00,
2013-04-22 14:58:00,86.9,26.1,29.12,North,11,12.5,14.8,11,0.00,,---,0.00,VWS V14.01,2013-04-22 21:58:00,
2013-04-22 15:03:00,86.0,25.4,29.12,NNW,342,12.1,12.1,11,0.00,,---,0.00,VWS V14.01,2013-04-22 22:03:00,
2013-04-22 15:08:00,85.3,24.9,29.12,North,0,9.2,10.1,11,0.00,,---,0.00,VWS V14.01,2013-04-22 22:08:00,
2013-04-22 15:13:00,86.0,25.4,29.12,NNE,26,11.2,14.8,11,0.00,,---,0.00,VWS V14.01,2013-04-22 22:13:00,
2013-04-22 15:19:00,86.0,25.4,29.12,NNW,339,13.9,13.9,11,0.00,,---,0.00,VWS V14.01,2013-04-22 22:19:00,
2013-04-22 15:24:00,85.5,25.0,29.12,NNW,333,9.6,11.6,11,0.00,,---,0.00,VWS V14.01,2013-04-22 22:24:00,
2013-04-22 15:29:00,85.6,25.2,29.12,North,351,8.3,11.2,11,0.00,,---,0.00,VWS V14.01,2013-04-22 22:29:00,
2013-04-22 15:34:00,86.4,25.7,29.09,NNW,333,9.6,13.0,11,0.00,,---,0.00,VWS V14.01,2013-04-22 22:34:00,
2013-04-22 15:39:00,86.4,25.7,29.09,NNW,336,5.8,7.8,11,0.00,,---,0.00,VWS V14.01,2013-04-22 22:39:00,
2013-04-22 15:44:00,87.4,24.2,29.09,NNE,25,9.6,11.2,10,0.00,,---,0.00,VWS V14.01,2013-04-22 22:44:00,
2013-04-22 15:49:00,87.1,24.0,29.09,NW,305,5.8,7.8,10,0.00,,---,0.00,VWS V14.01,2013-04-22 22:49:00,
2013-04-22 15:54:00,86.7,26.0,29.09,NW,311,7.8,10.1,11,0.00,,---,0.00,VWS V14.01,2013-04-22 22:54:00,
2013-04-22 15:59:00,86.9,26.1,29.09,WNW,292,9.2,10.1,11,0.00,,---,0.00,VWS V14.01,2013-04-22 22:59:00,
2013-04-22 16:04:00,86.5,25.9,29.09,NNW,343,8.3,10.1,11,0.00,,---,0.00,VWS V14.01,2013-04-22 23:04:00,
2013-04-22 16:09:00,86.7,26.0,29.09,NW,311,4.0,8.7,11,0.00,,---,0.00,VWS V14.01,2013-04-22 23:09:00,
2013-04-22 16:15:00,87.3,24.1,29.09,NNW,334,11.0,11.0,10,0.00,,---,0.00,VWS V14.01,2013-04-22 23:15:00,
2013-04-22 16:20:00,87.4,24.2,29.09,WNW,286,5.8,8.7,10,0.00,,---,0.00,VWS V14.01,2013-04-22 23:20:00,
2013-04-22 16:25:00,86.7,26.0,29.09,North,6,9.2,12.1,11,0.00,,---,0.00,VWS V14.01,2013-04-22 23:25:00,
2013-04-22 16:30:00,86.4,25.7,29.09,North,356,12.5,13.4,11,0.00,,---,0.00,VWS V14.01,2013-04-22 23:30:00,
2013-04-22 16:35:00,86.7,26.0,29.06,NNW,347,4.9,6.7,11,0.00,,---,0.00,VWS V14.01,2013-04-22 23:35:00,
2013-04-22 16:40:00,86.4,25.7,29.06,North,4,6.7,9.2,11,0.00,,---,0.00,VWS V14.01,2013-04-22 23:40:00,
2013-04-22 16:45:00,86.5,25.9,29.06,North,9,12.5,12.5,11,0.00,,---,0.00,VWS V14.01,2013-04-22 23:45:00,
2013-04-22 16:50:00,86.2,25.6,29.06,North,351,9.6,14.8,11,0.00,,---,0.00,VWS V14.01,2013-04-22 23:50:00,
2013-04-22 16:55:00,86.0,25.4,29.06,NNW,345,11.0,15.4,11,0.00,,---,0.00,VWS V14.01,2013-04-22 23:55:00,
2013-04-22 17:00:00,86.0,25.4,29.06,NNE,15,6.9,11.2,11,0.00,,---,0.00,VWS V14.01,2013-04-23 00:00:00,
2013-04-22 17:05:00,86.5,25.9,29.06,NNW,347,8.7,10.5,11,0.00,,---,0.00,VWS V14.01,2013-04-23 00:05:00,
2013-04-22 17:10:00,86.5,25.9,29.06,North,9,6.3,6.3,11,0.00,,---,0.00,VWS V14.01,2013-04-23 00:10:00,
2013-04-22 17:15:00,86.5,25.9,29.06,North,9,6.3,6.3,11,0.00,,---,0.00,VWS V14.01,2013-04-23 00:15:00,
2013-04-22 17:20:00,86.5,25.9,29.06,North,9,6.3,6.3,11,0.00,,---,0.00,VWS V14.01,2013-04-23 00:20:00,
2013-04-22 17:25:00,86.5,25.9,29.06,North,9,6.3,6.3,11,0.00,,---,0.00,VWS V14.01,2013-04-23 00:25:00,
2013-04-22 17:30:00,85.6,25.2,29.06,North,351,8.3,12.5,11,0.00,,---,0.00,VWS V14.01,2013-04-23 00:30:00,
2013-04-22 17:35:00,85.8,25.3,29.06,North,351,12.5,15.4,11,0.00,,---,0.00,VWS V14.01,2013-04-23 00:35:00,
2013-04-22 17:40:00,86.0,25.4,29.06,North,2,7.4,8.7,11,0.00,,---,0.00,VWS V14.01,2013-04-23 00:40:00,
2013-04-22 17:45:00,85.8,25.3,29.06,NNE,31,14.3,14.3,11,0.00,,---,0.00,VWS V14.01,2013-04-23 00:45:00,
2013-04-22 17:50:00,84.9,24.6,29.06,NE,38,13.4,15.2,11,0.00,,---,0.00,VWS V14.01,2013-04-23 00:50:00,
2013-04-22 17:55:00,84.7,24.5,29.06,NNE,25,8.7,13.4,11,0.00,,---,0.00,VWS V14.01,2013-04-23 00:55:00,
2013-04-22 18:00:00,84.9,24.6,29.06,NNE,23,13.9,13.9,11,0.00,,---,0.00,VWS V14.01,2013-04-23 01:00:00,
2013-04-22 18:05:00,84.7,24.5,29.06,NNE,25,13.0,15.2,11,0.00,,---,0.00,VWS V14.01,2013-04-23 01:05:00,
2013-04-22 18:10:00,84.7,24.5,29.06,NNE,28,15.2,15.2,11,0.00,,---,0.00,VWS V14.01,2013-04-23 01:10:00,
2013-04-22 18:15:00,84.2,24.0,29.06,NNE,18,14.3,14.3,11,0.00,,---,0.00,VWS V14.01,2013-04-23 01:15:00,
2013-04-22 18:20:00,83.7,23.6,29.06,NNE,29,11.6,14.8,11,0.00,,---,0.00,VWS V14.01,2013-04-23 01:20:00,
2013-04-22 18:25:00,83.7,23.6,29.06,NNE,25,14.3,14.8,11,0.00,,---,0.00,VWS V14.01,2013-04-23 01:25:00,
2013-04-22 18:30:00,83.3,23.4,29.06,NNE,21,13.4,17.2,11,0.00,,---,0.00,VWS V14.01,2013-04-23 01:30:00,
2013-04-22 18:35:00,83.1,23.2,29.06,NNE,22,14.8,15.4,11,0.00,,---,0.00,VWS V14.01,2013-04-23 01:35:00,
2013-04-22 18:40:00,82.8,23.0,29.06,NNE,21,13.0,14.3,11,0.00,,---,0.00,VWS V14.01,2013-04-23 01:40:00,
2013-04-22 18:45:00,82.6,22.8,29.06,NNE,19,10.5,11.6,11,0.00,,---,0.00,VWS V14.01,2013-04-23 01:45:00,
2013-04-22 18:50:00,82.2,22.5,29.06,NNE,21,10.5,12.5,11,0.00,,---,0.00,VWS V14.01,2013-04-23 01:50:00,
2013-04-22 18:55:00,81.9,22.2,29.06,North,351,9.2,14.3,11,0.00,,---,0.00,VWS V14.01,2013-04-23 01:55:00,
2013-04-22 19:00:00,81.5,24.0,29.06,NNE,13,10.1,10.5,12,0.00,,---,0.00,VWS V14.01,2013-04-23 02:00:00,
2013-04-22 19:05:00,81.0,23.6,29.06,NNE,13,7.8,8.7,12,0.00,,---,0.00,VWS V14.01,2013-04-23 02:05:00,
2013-04-22 19:10:00,80.4,23.2,29.06,North,11,6.9,8.7,12,0.00,,---,0.00,VWS V14.01,2013-04-23 02:10:00,
2013-04-22 19:15:00,80.1,22.9,29.06,NNE,14,5.4,10.1,12,0.00,,---,0.00,VWS V14.01,2013-04-23 02:15:00,
2013-04-22 19:21:00,79.0,22.1,29.06,NNE,19,7.4,7.4,12,0.00,,---,0.00,VWS V14.01,2013-04-23 02:21:00,
2013-04-22 19:26:00,77.9,21.2,29.06,NNE,23,7.4,7.4,12,0.00,,---,0.00,VWS V14.01,2013-04-23 02:26:00,
2013-04-22 19:31:00,77.0,22.4,29.06,NNE,23,6.3,6.9,13,0.00,,---,0.00,VWS V14.01,2013-04-23 02:31:00,
2013-04-22 19:36:00,76.3,21.9,29.06,NE,34,6.7,7.4,13,0.00,,---,0.00,VWS V14.01,2013-04-23 02:36:00,
2013-04-22 19:41:00,75.7,21.5,29.06,NNE,33,6.7,7.4,13,0.00,,---,0.00,VWS V14.01,2013-04-23 02:41:00,
2013-04-22 19:46:00,75.2,21.0,29.06,NNE,30,6.7,6.9,13,0.00,,---,0.00,VWS V14.01,2013-04-23 02:46:00,
2013-04-22 19:51:00,73.8,19.9,29.06,NNE,33,4.9,6.3,13,0.00,,---,0.00,VWS V14.01,2013-04-23 02:51:00,
2013-04-22 19:56:00,72.9,19.2,29.06,NE,39,6.3,6.3,13,0.00,,---,0.00,VWS V14.01,2013-04-23 02:56:00,
2013-04-22 20:01:00,73.6,19.8,29.06,NE,34,6.9,7.8,13,0.00,,---,0.00,VWS V14.01,2013-04-23 03:01:00,
2013-04-22 20:06:00,73.6,19.8,29.09,NE,38,6.9,6.9,13,0.00,,---,0.00,VWS V14.01,2013-04-23 03:06:00,
2013-04-22 20:11:00,73.4,19.6,29.09,NE,35,6.3,6.9,13,0.00,,---,0.00,VWS V14.01,2013-04-23 03:11:00,
2013-04-22 20:16:00,73.4,19.6,29.09,NE,36,4.9,6.3,13,0.00,,---,0.00,VWS V14.01,2013-04-23 03:16:00,
2013-04-22 20:21:00,72.0,20.2,29.09,NE,45,0.0,0.0,14,0.00,,---,0.00,VWS V14.01,2013-04-23 03:21:00,
2013-04-22 20:26:00,69.8,18.5,29.09,NE,46,0.0,0.0,14,0.00,,---,0.00,VWS V14.01,2013-04-23 03:26:00,
2013-04-22 20:31:00,68.5,19.1,29.09,ENE,77,0.0,0.0,15,0.00,,---,0.00,VWS V14.01,2013-04-23 03:31:00,
2013-04-22 20:36:00,68.0,18.7,29.09,East,91,4.5,4.9,15,0.00,,---,0.00,VWS V14.01,2013-04-23 03:36:00,
2013-04-22 20:41:00,67.6,18.4,29.09,ENE,65,0.0,0.0,15,0.00,,---,0.00,VWS V14.01,2013-04-23 03:41:00,
2013-04-22 20:46:00,66.6,17.5,29.09,WNW,283,4.5,5.8,15,0.00,,---,0.00,VWS V14.01,2013-04-23 03:46:00,
2013-04-22 20:51:00,65.1,16.4,29.09,NE,39,0.0,5.8,15,0.00,,---,0.00,VWS V14.01,2013-04-23 03:51:00,
2013-04-22 20:56:00,64.9,16.2,29.09,NE,56,0.0,0.0,15,0.00,,---,0.00,VWS V14.01,2013-04-23 03:56:00,
2013-04-22 21:01:00,65.1,16.4,29.09,East,90,0.0,0.0,15,0.00,,---,0.00,VWS V14.01,2013-04-23 04:01:00,
2013-04-22 21:02:00,65.7,16.8,29.09,East,90,0.0,0.0,15,0.00,,---,0.00,VWS V14.01,2013-04-23 04:02:00,
2013-04-22 21:03:00,65.8,16.9,29.12,ENE,76,3.1,3.1,15,0.00,,---,0.00,VWS V14.01,2013-04-23 04:03:00,
2013-04-22 21:05:00,65.5,16.6,29.12,East,83,2.7,3.6,15,0.00,,---,0.00,VWS V14.01,2013-04-23 04:05:00,
2013-04-22 21:09:00,65.7,16.8,29.12,East,82,0.0,0.0,15,0.00,,---,0.00,VWS V14.01,2013-04-23 04:09:00,
2013-04-22 21:14:00,65.8,16.9,29.12,East,99,4.0,4.0,15,0.00,,---,0.00,VWS V14.01,2013-04-23 04:14:00,
2013-04-22 21:19:00,66.6,17.5,29.12,East,99,0.0,2.7,15,0.00,,---,0.00,VWS V14.01,2013-04-23 04:19:00,
2013-04-22 21:24:00,66.4,17.4,29.12,East,97,0.0,0.0,15,0.00,,---,0.00,VWS V14.01,2013-04-23 04:24:00,
2013-04-22 21:29:00,65.7,16.8,29.12,East,97,0.0,2.7,15,0.00,,---,0.00,VWS V14.01,2013-04-23 04:29:00,
2013-04-22 21:34:00,66.0,17.1,29.12,East,100,0.0,0.0,15,0.00,,---,0.00,VWS V14.01,2013-04-23 04:34:00,
2013-04-22 21:39:00,66.4,17.4,29.12,East,100,0.0,0.0,15,0.00,,---,0.00,VWS V14.01,2013-04-23 04:39:00,
2013-04-22 21:44:00,66.2,17.2,29.12,ESE,102,3.6,3.6,15,0.00,,---,0.00,VWS V14.01,2013-04-23 04:44:00,
2013-04-22 21:49:00,65.7,16.8,29.12,SE,140,4.0,4.5,15,0.00,,---,0.00,VWS V14.01,2013-04-23 04:49:00,
2013-04-22 21:54:00,65.5,16.6,29.12,SE,140,4.9,5.4,15,0.00,,---,0.00,VWS V14.01,2013-04-23 04:54:00,
2013-04-22 22:00:00,64.0,15.5,29.12,SSE,148,3.1,4.0,15,0.00,,---,0.00,VWS V14.01,2013-04-23 05:00:00,
2013-04-22 22:05:00,64.0,15.5,29.12,ESE,120,4.0,4.0,15,0.00,,---,0.00,VWS V14.01,2013-04-23 05:05:00,
2013-04-22 22:10:00,63.9,15.3,29.12,ENE,78,3.1,4.5,15,0.00,,---,0.00,VWS V14.01,2013-04-23 05:10:00,
2013-04-22 22:15:00,63.7,15.2,29.12,ESE,123,4.5,5.4,15,0.00,,---,0.00,VWS V14.01,2013-04-23 05:15:00,
2013-04-22 22:20:00,64.9,16.2,29.12,ESE,117,2.7,3.1,15,0.00,,---,0.00,VWS V14.01,2013-04-23 05:20:00,
2013-04-22 22:25:00,65.1,16.4,29.12,ESE,118,0.0,0.0,15,0.00,,---,0.00,VWS V14.01,2013-04-23 05:25:00,
2013-04-22 22:30:00,63.1,16.2,29.12,ESE,119,0.0,0.0,16,0.00,,---,0.00,VWS V14.01,2013-04-23 05:30:00,
2013-04-22 22:35:00,61.5,14.9,29.12,ESE,119,0.0,0.0,16,0.00,,---,0.00,VWS V14.01,2013-04-23 05:35:00,
2013-04-22 22:40:00,60.4,14.1,29.12,NE,54,3.1,3.1,16,0.00,,---,0.00,VWS V14.01,2013-04-23 05:40:00,
2013-04-22 22:45:00,59.0,14.3,29.12,East,92,2.7,4.0,17,0.00,,---,0.00,VWS V14.01,2013-04-23 05:45:00,
2013-04-22 22:50:00,58.8,14.1,29.12,East,99,0.0,0.0,17,0.00,,---,0.00,VWS V14.01,2013-04-23 05:50:00,
2013-04-22 22:55:00,59.7,14.9,29.12,ESE,106,0.0,0.0,17,0.00,,---,0.00,VWS V14.01,2013-04-23 05:55:00,
2013-04-22 23:00:00,58.5,13.8,29.12,NNE,27,0.0,0.0,17,0.00,,---,0.00,VWS V14.01,2013-04-23 06:00:00,
2013-04-22 23:05:00,58.6,14.0,29.12,NNE,27,0.0,0.0,17,0.00,,---,0.00,VWS V14.01,2013-04-23 06:05:00,
2013-04-22 23:10:00,59.0,14.3,29.12,ESE,109,3.6,4.9,17,0.00,,---,0.00,VWS V14.01,2013-04-23 06:10:00,
2013-04-22 23:15:00,59.5,14.7,29.12,ESE,111,4.5,4.5,17,0.00,,---,0.00,VWS V14.01,2013-04-23 06:15:00,
2013-04-22 23:20:00,60.4,14.1,29.12,ESE,111,5.8,5.8,16,0.00,,---,0.00,VWS V14.01,2013-04-23 06:20:00,
2013-04-22 23:25:00,60.4,14.1,29.12,NE,55,0.0,3.6,16,0.00,,---,0.00,VWS V14.01,2013-04-23 06:25:00,
2013-04-22 23:30:00,59.5,14.7,29.12,ESE,119,0.0,0.0,17,0.00,,---,0.00,VWS V14.01,2013-04-23 06:30:00,
2013-04-22 23:35:00,57.7,13.2,29.12,ENE,75,0.0,0.0,17,0.00,,---,0.00,VWS V14.01,2013-04-23 06:35:00,
2013-04-22 23:40:00,57.0,12.7,29.12,North,5,0.0,0.0,17,0.00,,---,0.00,VWS V14.01,2013-04-23 06:40:00,
2013-04-22 23:45:00,56.3,12.1,29.12,North,5,0.0,0.0,17,0.00,,---,0.00,VWS V14.01,2013-04-23 06:45:00,
2013-04-22 23:50:00,55.9,11.8,29.12,ESE,102,3.1,3.6,17,0.00,,---,0.00,VWS V14.01,2013-04-23 06:50:00,
2013-04-22 23:55:00,57.6,13.1,29.12,ESE,107,0.0,0.0,17,0.00,,---,0.00,VWS V14.01,2013-04-23 06:55:00,